Details From OJAI - Queen Alia Intl
To OJAQ - Aqaba King Hussein Intl
Flight Number -
Tags Generated
Created
Modified
Stats Distance 137 nm / 253 km
Max Altitude 0 ft / 0 m
Waypoints 2
Social Downloads 5
Likes 0
Share VATSIM

Download

Looking for another format? Having issues loading an existing format? Contact us
Advertisement - Login to hide

Notes

Generated

Route

OJAI OJAQ

ID Type Via Altitude Latitude Longitude Leg Dist Tot Dist Heading (true) Name
O OJAI APT - 0 ft / 0 m 31.71439˚ 35.98059˚ - 0 nm - -
O OJAQ APT - 0 ft / 0 m 29.59805˚ 35.01332˚ 136 nm 136 nm 202° / 201° -

Altitude Profile

Advertisement - Login to hide

OJAI

Details ICAO OJAI (AMM)
Name QUEEN ALIA INTL
Region Jordan and the West Bank
Timezone Asia/Amman (UTC+3.0)
Stats Elevation 2,395 ft / 730 m (AMSL)
Location 31.723310° 35.994046°
Runways 2
Magnetic Variation 4.695° E

METAR

OJAI 201000Z 28012KT 6000 NSC 35/05 Q1014 NOSIG

Decode

TAF

TAF OJAI 200433Z 2006/2112 26004KT 4000 HZ NSC BECMG 2008/2010 30018KT 5000 HZ NSC TEMPO 2011/2016 3000 DU

Decode

Departure Runways

ID Width Length Bearing (true) Bearing (mag) Surface Threshold Offset Overrun Length
08L 200 ft / 61 m 11,948 ft / 3,642 m 80.34° 75.65° Asphalt 0 ft / 0 m 490 ft / 149 m
08R 200 ft / 61 m 11,943 ft / 3,640 m 80.35° 75.66° Concrete 0 ft / 0 m 530 ft / 162 m
26L 200 ft / 61 m 11,943 ft / 3,640 m 260.37° 255.68° Concrete 0 ft / 0 m 500 ft / 152 m
26R 200 ft / 61 m 11,948 ft / 3,642 m 260.36° 255.67° Asphalt 0 ft / 0 m 492 ft / 150 m

OJAQ

Details ICAO OJAQ (AQJ)
Name AQABA KING HUSSEIN INTL
Region Jordan and the West Bank
Timezone Asia/Amman (UTC+3.0)
Stats Elevation 175 ft / 53 m (AMSL)
Location 29.611006° 35.017851°
Runways 1
Magnetic Variation 4.469° E

METAR

OJAQ 201000Z 35004KT CAVOK 38/16 Q1007 NOSIG

Decode

TAF

TAF OJAQ 200433Z 2006/2112 35012KT 7000 NSC

Decode

Destination Runways

ID Width Length Bearing (true) Bearing (mag) Surface Threshold Offset Overrun Length
01 148 ft / 45 m 9,885 ft / 3,013 m 16.91° 12.44° Asphalt 0 ft / 0 m 0 ft / 0 m
19 148 ft / 45 m 9,885 ft / 3,013 m 196.91° 192.44° Asphalt 0 ft / 0 m 656 ft / 200 m

Approach Navaids

Runway Type Ident Frequency Range Bearing (true) Bearing (mag) Slope Elevation
01 Localiser IAQA 110.10 MHz 18 nm / 33 km 16.76° 12.29° - 111 ft / 34 m (AMSL)
01 Glidescope IAQA 110.10 MHz 10 nm / 19 km 16.91° 12.44° 3.00° 162 ft / 49 m (AMSL)

Popular Alternatives